Αναφορές METAR

 

LGKZ - Kozani (civ/Army, Greece
Distance from station: ΝΔ 41km
Ενημερώθηκε: 20/10/2018 14:50
NOT Current
Few Clouds
Few Clouds
 Ανεμος από Β
Ανεμος: Β 11 km/h
Θερμοκρασία: 22°C
Σημείο Δρόσου: 7°C
Υγρασία: 38%
Βαρόμετρο: 1019 hPa
Clouds: Few Clouds
Visibility: 10 km
Cloud details: Few Clouds 762 m
2018/10/20 11:50 LGKZ 201150Z 36006KT 9999 FEW025 22/07 Q1019
LGTS - Thessaloniki/Mik, Greece
Distance from station: Α 64km
Ενημερώθηκε: 20/10/2018 17:20
Μερικώς νεφελώδης
Μερικώς νεφελώδης
 Ανεμος από ΒΒΔ
Ανεμος: ΒΒΔ 17 km/h
Θερμοκρασία: 21°C
Σημείο Δρόσου: 9°C
Υγρασία: 46%
Βαρόμετρο: 1018 hPa
Clouds: Μερικώς νεφελώδης
Visibility: 10 km
Cloud details: Few Clouds 610 m
Μερικώς νεφελώδης 1067 m
2018/10/20 14:20 LGTS 201420Z 34009KT 9999 FEW020TCU SCT035 21/09 Q1018 NOSIG
 
LGIO - Ioannina, Greece
Distance from station: ΝΔ 149km
Ενημερώθηκε: 20/10/2018 17:20
Few Clouds
Few Clouds
 Ανεμος από varies
Ανεμος: varies 0 km/h
Θερμοκρασία: 23°C
Σημείο Δρόσου: 13°C
Υγρασία: 53%
Βαρόμετρο: 1016 hPa
Clouds: Few Clouds
Visibility: 10 km
Cloud details: Few Clouds 762 m
2018/10/20 14:20 LGIO 201420Z /////KT 9999 FEW025 23/13 Q1016
LGBL - Nea Anchialos, Greece
Distance from station: ΝΝΑ 154km
Ενημερώθηκε: 20/10/2018 17:20
Μερικώς νεφελώδης
Μερικώς νεφελώδης
 Ανεμος από ΑΝΑ
Ανεμος: ΑΝΑ 7 km/h
Θερμοκρασία: 22°C
Σημείο Δρόσου: 14°C
Υγρασία: 61%
Βαρόμετρο: 1017 hPa
Clouds: Μερικώς νεφελώδης
Visibility: 10 km
Cloud details: Few Clouds 610 m
Μερικώς νεφελώδης 2438 m
2018/10/20 14:20 LGBL 201420Z 12004KT 9999 FEW020 SCT080 22/14 Q1017
 
LGSK - Skiathos Island, Greece
Distance from station: ΝΑ 185km
Ενημερώθηκε: 20/10/2018 16:50
Few Clouds
Few Clouds
 Ανεμος από ΒΒΑ
Ανεμος: ΒΒΑ 9 km/h
Θερμοκρασία: 21°C
Σημείο Δρόσου: 18°C
Υγρασία: 83%
Βαρόμετρο: 1017 hPa
Clouds: Few Clouds
Visibility: 8 km
Cloud details: Few Clouds 610 m
2018/10/20 13:50 LGSK 201350Z 03005KT 8000 FEW020 21/18 Q1017
LGKV - Kavala/Chrisoupo, Greece
Distance from station: ΑΒΑ 208km
Ενημερώθηκε: 20/10/2018 17:20
Μερικώς νεφελώδης
Μερικώς νεφελώδης
 Ανεμος από ΑΒΑ
Ανεμος: ΑΒΑ 6 km/h
Θερμοκρασία: 17°C
Σημείο Δρόσου: 15°C
Υγρασία: 88%
Βαρόμετρο: 1017 hPa
Clouds: Μερικώς νεφελώδης
Visibility: 10 km
Cloud details: Few Clouds 305 m
Few Clouds 610 m
Μερικώς νεφελώδης 2134 m
2018/10/20 14:20 LGKV 201420Z 07003KT 9999 FEW010 FEW020TCU SCT070 17/15 Q1017
 
LGPZ - Preveza/Aktion, Greece
Distance from station: ΝΔ 217km
Ενημερώθηκε: 20/10/2018 17:20
Αίθριος
Αίθριος
 Ανεμος από ΔΝΔ
Ανεμος: ΔΝΔ 11 km/h
Θερμοκρασία: 23°C
Σημείο Δρόσου: 19°C
Υγρασία: 78%
Βαρόμετρο: 1016 hPa
Περίληψη: Αίθριος
Visibility: greater than 10 km
2018/10/20 14:20 LGPZ 201420Z 25006KT CAVOK 23/19 Q1016
LGKR - Ioannis Kapodist, Greece
Distance from station: ΔΝΔ 219km
Ενημερώθηκε: 20/10/2018 17:20
Αίθριος
Αίθριος
 Ανεμος από ΔΒΔ
Ανεμος: ΔΒΔ 22 km/h
Θερμοκρασία: 28°C
Heat Index: 28°C
Σημείο Δρόσου: 15°C
Υγρασία: 45%
Βαρόμετρο: 1015 hPa
Περίληψη: Αίθριος
Visibility: greater than 10 km
2018/10/20 14:20 LGKR 201420Z 30012KT CAVOK 28/15 Q1015 NOSIG
 
LGSY - Skiros, Greece
Distance from station: ΝΑ 261km
Ενημερώθηκε: 20/10/2018 16:50
Few Clouds
Few Clouds
 Ανεμος από ΒΒΔ
Ανεμος: ΒΒΔ 20 km/h
Θερμοκρασία: 20°C
Σημείο Δρόσου: 18°C
Υγρασία: 88%
Βαρόμετρο: 1017 hPa
Clouds: Few Clouds
Visibility: 10 km
Cloud details: Few Clouds 549 m
2018/10/20 13:50 LGSY 201350Z 33011KT 9999 FEW018 20/18 Q1017 RMK SCT120 BLU
LGLM - Limnos Island Ar, Greece
Distance from station: ΑΝΑ 266km
Ενημερώθηκε: 20/10/2018 17:20
Ασθενής βροχή, Μερικώς νεφελώδης
Ασθενής βροχή, Μερικώς νεφελώδης
 Ανεμος από Β
Ανεμος: Β 22 km/h
Θερμοκρασία: 19°C
Σημείο Δρόσου: 14°C
Υγρασία: 73%
Βαρόμετρο: 1017 hPa
Περίληψη: Ασθενής βροχή
Clouds: Μερικώς νεφελώδης
Visibility: 10 km
Cloud details: Few Clouds 549 m
Μερικώς νεφελώδης 914 m
2018/10/20 14:20 LGLM 201420Z 01012KT 9999 -RA FEW018TCU SCT030 19/14 Q1017
 
LGRX - Araxos (civ/Afb), Greece
Distance from station: ΝΝΔ 271km
Ενημερώθηκε: 20/10/2018 17:20
Αίθριος
Αίθριος
 Ανεμος από calm
Ανεμος: Απνοια
Θερμοκρασία: 25°C
Σημείο Δρόσου: 14°C
Υγρασία: 51%
Βαρόμετρο: 1015 hPa
Περίληψη: Αίθριος
Visibility: greater than 10 km
2018/10/20 14:20 LGRX 201420Z 00000KT CAVOK 25/14 Q1015
LGEL - Elefsis (hel-Afb, Greece
Distance from station: ΝΝΑ 297km
Ενημερώθηκε: 20/10/2018 17:20
Few Clouds
Few Clouds
 Ανεμος από ΝΝΔ
Ανεμος: ΝΝΔ 9 km/h
Θερμοκρασία: 24°C
Σημείο Δρόσου: 15°C
Υγρασία: 57%
Βαρόμετρο: 1016 hPa
Clouds: Few Clouds
Visibility: 10 km
Cloud details: Few Clouds 914 m
2018/10/20 14:20 LGEL 201420Z 20005KT 9999 FEW030 24/15 Q1016
 
LGAD - Andravida (civ/A, Greece
Distance from station: ΝΝΔ 301km
Ενημερώθηκε: 20/10/2018 17:20
Αίθριος
Αίθριος
 Ανεμος από ΒΒΔ
Ανεμος: ΒΒΔ 9 km/h
Θερμοκρασία: 25°C
Σημείο Δρόσου: 12°C
Υγρασία: 44%
Βαρόμετρο: 1015 hPa
Περίληψη: Αίθριος
Visibility: greater than 10 km
2018/10/20 14:20 LGAD 201420Z 33005KT CAVOK 25/12 Q1015
LGKF - Kefallinia, Greece
Distance from station: ΝΝΔ 305km
Ενημερώθηκε: 20/10/2018 16:50
Αίθριος
Αίθριος
 Ανεμος από ΒΔ
Ανεμος: ΒΔ 19 km/h
Θερμοκρασία: 26°C
Σημείο Δρόσου: 17°C
Υγρασία: 58%
Βαρόμετρο: 1016 hPa
Περίληψη: Αίθριος
Visibility: greater than 10 km
2018/10/20 13:50 LGKF 201350Z 32010KT CAVOK 26/17 Q1016